Hudson, Wyoming
Current Conditions -  °F | °C
As of 2:53 AM on Friday 31 Oct 2014 (Local Time) from KLND Reporting Station
Clear Clear  
Wind Chill: 38°   Ceiling: Unl
Heat Index: 38°   Visibility: 10mi
Dew Point: 27°   Wind: 3mph
Humidity: 65%   Direction: 130°SE
Pressure: 30.21"   Gusts: NA
Location:  42.91°N, 108.58°W
Report Text: KLND 310853Z AUTO 13003KT 10SM CLR 03/M03 A3021 RMK AO2 SLP209 T00331028 56012 TSNO
Loading
Personal Weather Stations






























Interactive Weather Map
Tropical Storm Tracking
New forecast layout! Learn more

10-Day Weather Forecast

Advertisements
Track Severe Weather on mobile